Time;durP1;ratioP1;P1;durP2;ratioP2;P2;SDS_P1;SDS_P2;PMS_P1;PMS_P2;Temp;Humidity;BMP_temperature;BMP_pressure;BME280_temperature;BME280_humidity;BME280_pressure;Samples;Min_cycle;Max_cycle;Signal;HPM_P1;HPM_P2
2021/11/08 00:00:46;;;;;;;15.18;3.15;;;8.20;99.90;;;;;;4981734;28;20052;-95
2021/11/08 00:03:15;;;;;;;18.33;2.63;;;8.20;99.90;;;;;;4998238;28;20048;-96
2021/11/08 00:05:43;;;;;;;25.13;3.22;;;8.20;99.90;;;;;;4982079;28;20050;-95
2021/11/08 00:08:11;;;;;;;28.83;3.35;;;8.20;99.90;;;;;;4997901;28;20046;-95
2021/11/08 00:10:38;;;;;;;23.85;3.05;;;8.20;99.90;;;;;;4965773;28;20042;-95
2021/11/08 00:13:06;;;;;;;24.67;3.33;;;8.10;99.90;;;;;;4982090;28;20049;-96
2021/11/08 00:20:50;;;;;;;26.65;3.30;;;8.00;99.90;;;;;;4997184;28;20485;-96
2021/11/08 00:23:17;;;;;;;35.47;3.60;;;8.00;99.90;;;;;;4997417;28;20048;-95
2021/11/08 00:25:43;;;;;;;27.98;3.78;;;8.00;99.90;;;;;;4965474;28;20046;-95
2021/11/08 00:28:11;;;;;;;32.13;4.03;;;7.90;99.90;;;;;;4981168;28;20049;-96
2021/11/08 00:30:38;;;;;;;34.65;3.90;;;7.80;99.90;;;;;;4982307;28;20091;-96
2021/11/08 00:33:08;;;;;;;32.45;3.70;;;7.70;99.90;;;;;;5001694;28;20053;-94
2021/11/08 00:35:37;;;;;;;39.50;3.65;;;7.70;99.90;;;;;;5016512;28;20191;-94
2021/11/08 00:38:04;;;;;;;22.70;3.22;;;7.60;99.90;;;;;;5017072;28;20385;-95
2021/11/08 00:40:31;;;;;;;31.15;3.30;;;7.70;99.90;;;;;;5016793;28;20426;-94
2021/11/08 00:42:57;;;;;;;27.83;4.32;;;7.70;99.90;;;;;;4984618;28;20080;-96
2021/11/08 00:45:23;;;;;;;27.63;4.25;;;7.80;99.90;;;;;;4984867;28;20095;-95
2021/11/08 00:47:50;;;;;;;32.92;3.60;;;7.80;99.90;;;;;;4984747;28;20487;-95
2021/11/08 00:50:16;;;;;;;30.73;3.05;;;7.80;99.90;;;;;;5016418;28;20111;-95
2021/11/08 00:52:42;;;;;;;26.20;3.08;;;7.80;99.90;;;;;;4984139;28;20107;-94
2021/11/08 00:55:09;;;;;;;25.33;3.53;;;7.80;99.90;;;;;;5016661;28;20033;-95
2021/11/08 00:57:39;;;;;;;25.75;3.55;;;7.70;99.90;;;;;;4983983;28;20548;-96
2021/11/08 01:00:08;;;;;;;29.48;3.42;;;7.70;99.90;;;;;;4984159;28;20086;-94
2021/11/08 01:02:34;;;;;;;29.35;3.45;;;7.70;99.90;;;;;;5015374;28;20377;-95
2021/11/08 01:05:00;;;;;;;32.00;3.85;;;7.70;99.90;;;;;;4983208;28;20048;-94
2021/11/08 01:07:28;;;;;;;17.00;2.55;;;7.60;99.90;;;;;;4999093;28;20052;-94
2021/11/08 01:09:54;;;;;;;23.75;3.42;;;7.60;99.90;;;;;;4999729;28;20041;-95
2021/11/08 01:12:22;;;;;;;29.10;3.40;;;7.60;99.90;;;;;;4999530;28;20415;-95
2021/11/08 01:14:48;;;;;;;26.45;3.95;;;7.70;99.90;;;;;;5015674;28;20038;-94
2021/11/08 01:17:14;;;;;;;21.48;2.85;;;7.70;99.90;;;;;;5015761;28;20132;-94
2021/11/08 01:19:40;;;;;;;27.08;3.13;;;7.70;99.90;;;;;;4983088;28;20461;-94
2021/11/08 01:22:14;;;;;;;23.58;4.03;;;7.70;99.90;;;;;;4983193;28;20053;-93
2021/11/08 01:24:40;;;;;;;18.15;2.53;;;7.70;99.90;;;;;;4999306;28;20038;-96
2021/11/08 01:27:07;;;;;;;32.85;2.90;;;7.70;99.90;;;;;;5034988;28;20064;-94
2021/11/08 01:29:33;;;;;;;22.42;3.53;;;7.60;99.90;;;;;;5016106;28;20041;-94
2021/11/08 01:32:01;;;;;;;14.57;2.45;;;7.60;99.90;;;;;;4999480;28;20045;-95
2021/11/08 01:34:30;;;;;;;18.80;2.83;;;7.50;99.90;;;;;;5015416;28;20103;-94
2021/11/08 01:36:59;;;;;;;22.42;2.80;;;7.50;99.90;;;;;;5015827;28;20048;-95
2021/11/08 01:39:33;;;;;;;22.55;2.53;;;7.50;99.90;;;;;;4999025;28;20491;-94
2021/11/08 01:42:02;;;;;;;24.02;2.65;;;7.50;99.90;;;;;;4983734;28;20049;-94
2021/11/08 01:44:29;;;;;;;22.00;3.47;;;7.60;99.90;;;;;;5015838;28;20041;-94
2021/11/08 01:47:01;;;;;;;22.33;3.83;;;7.60;99.90;;;;;;5000712;28;20068;-96
2021/11/08 01:49:27;;;;;;;21.02;3.63;;;7.60;99.90;;;;;;4998952;28;20041;-94
2021/11/08 01:51:53;;;;;;;18.63;2.58;;;7.70;99.90;;;;;;4999985;28;20372;-96
2021/11/08 01:54:19;;;;;;;19.58;2.83;;;7.60;99.90;;;;;;5015724;28;20040;-95
2021/11/08 01:56:46;;;;;;;13.23;2.38;;;7.70;99.90;;;;;;4982749;28;20056;-95
2021/11/08 01:59:13;;;;;;;20.52;2.58;;;7.70;99.90;;;;;;4998939;28;20492;-96
2021/11/08 02:01:39;;;;;;;18.40;2.28;;;7.70;99.90;;;;;;4982525;28;20037;-95
2021/11/08 02:04:04;;;;;;;10.57;1.98;;;7.70;99.90;;;;;;5015141;28;20045;-95
2021/11/08 02:06:30;;;;;;;17.05;2.60;;;7.70;99.90;;;;;;4982099;28;20111;-95
2021/11/08 02:08:56;;;;;;;20.48;2.33;;;7.60;99.90;;;;;;4998465;28;20437;-93
2021/11/08 02:11:23;;;;;;;12.63;2.05;;;7.50;99.90;;;;;;5014860;28;20033;-94
2021/11/08 02:13:56;;;;;;;18.88;3.30;;;7.50;99.90;;;;;;5014898;28;20034;-95
2021/11/08 02:16:22;;;;;;;20.08;3.25;;;7.50;99.90;;;;;;5015248;28;20084;-96
2021/11/08 02:18:47;;;;;;;18.38;2.85;;;7.50;99.90;;;;;;5031400;28;20168;-94
2021/11/08 02:21:13;;;;;;;22.30;3.00;;;7.50;99.90;;;;;;5031527;28;20041;-94
2021/11/08 02:23:41;;;;;;;13.13;2.70;;;7.50;99.90;;;;;;4998323;28;20493;-95
2021/11/08 02:26:13;;;;;;;24.50;2.53;;;7.40;99.90;;;;;;4982653;28;20492;-96
2021/11/08 02:28:39;;;;;;;14.05;1.77;;;7.40;99.90;;;;;;4983069;28;20053;-94
2021/11/08 02:31:06;;;;;;;12.02;2.15;;;7.40;99.90;;;;;;4998459;28;20063;-95
2021/11/08 02:33:32;;;;;;;18.27;2.22;;;7.40;99.90;;;;;;4998427;28;20049;-95
2021/11/08 02:35:59;;;;;;;15.15;2.05;;;7.30;99.90;;;;;;5015290;28;20042;-95
2021/11/08 02:38:26;;;;;;;19.33;2.40;;;7.40;99.90;;;;;;4983200;28;20049;-96
2021/11/08 02:40:54;;;;;;;15.45;2.13;;;7.40;99.90;;;;;;5014812;28;20132;-93
2021/11/08 02:43:22;;;;;;;18.55;2.47;;;7.30;99.90;;;;;;4999038;28;20037;-95
2021/11/08 02:46:15;;;;;;;20.17;2.30;;;7.30;99.90;;;;;;4998348;28;20084;-93
2021/11/08 02:48:43;;;;;;;13.48;2.60;;;7.30;99.90;;;;;;4998300;28;20087;-95
2021/11/08 02:51:19;;;;;;;15.45;2.38;;;7.30;99.90;;;;;;5014552;28;20056;-94
2021/11/08 02:53:48;;;;;;;22.05;2.28;;;7.30;99.90;;;;;;4984958;28;20041;-91
2021/11/08 02:56:15;;;;;;;13.00;1.85;;;7.40;99.90;;;;;;5018394;28;20037;-94
2021/11/08 02:58:44;;;;;;;17.27;2.50;;;7.40;99.90;;;;;;5018158;28;20045;-96
2021/11/08 03:01:12;;;;;;;9.88;1.80;;;7.40;99.90;;;;;;5002297;28;20136;-94
2021/11/08 03:03:44;;;;;;;23.70;3.88;;;7.40;99.90;;;;;;5018257;28;20135;-95
2021/11/08 03:08:50;;;;;;;15.88;1.52;;;7.50;99.90;;;;;;5002663;28;20659;-91
2021/11/08 03:11:16;;;;;;;19.33;2.92;;;7.40;99.90;;;;;;5001625;28;20053;-91
2021/11/08 03:13:51;;;;;;;16.02;1.55;;;7.40;99.90;;;;;;5017447;28;20087;-92
2021/11/08 03:16:27;;;;;;;19.92;2.35;;;7.40;99.90;;;;;;5002780;28;20128;-91
2021/11/08 03:18:57;;;;;;;21.45;2.05;;;7.30;99.90;;;;;;4986398;28;20132;-91
2021/11/08 03:21:24;;;;;;;15.48;2.70;;;7.20;99.90;;;;;;5001537;28;20041;-92
2021/11/08 03:23:52;;;;;;;19.27;1.83;;;7.10;99.90;;;;;;5000680;28;20041;-93
2021/11/08 03:28:51;;;;;;;20.25;3.67;;;7.00;99.90;;;;;;5001662;28;20038;-91
2021/11/08 03:31:17;;;;;;;16.75;1.85;;;7.00;99.90;;;;;;5000629;28;20057;-92
2021/11/08 03:33:45;;;;;;;18.35;2.15;;;6.90;99.90;;;;;;4983929;28;20045;-91
2021/11/08 03:36:11;;;;;;;17.35;2.40;;;6.90;99.90;;;;;;5001688;28;20478;-94
2021/11/08 03:38:39;;;;;;;19.90;2.50;;;6.80;99.90;;;;;;5017297;28;20046;-95
2021/11/08 03:41:07;;;;;;;20.52;2.78;;;6.80;99.90;;;;;;5001433;28;20057;-95
2021/11/08 03:43:33;;;;;;;19.42;2.00;;;6.80;99.90;;;;;;5001138;28;20041;-95
2021/11/08 03:45:59;;;;;;;27.08;2.55;;;6.70;99.90;;;;;;5001365;28;20088;-95
2021/11/08 03:48:25;;;;;;;20.85;3.47;;;6.70;99.90;;;;;;4984873;28;20072;-95
2021/11/08 03:50:51;;;;;;;32.28;2.53;;;6.70;99.90;;;;;;5017142;28;20037;-93
2021/11/08 03:53:17;;;;;;;17.60;2.65;;;6.70;99.90;;;;;;5000654;28;20045;-95
2021/11/08 03:55:45;;;;;;;20.13;2.80;;;6.80;99.90;;;;;;5000236;28;20135;-95
2021/11/08 03:58:12;;;;;;;22.65;2.97;;;6.90;99.90;;;;;;5016809;28;20249;-95
2021/11/08 04:00:40;;;;;;;19.63;2.55;;;6.90;99.90;;;;;;4983998;28;20045;-95
2021/11/08 04:03:07;;;;;;;16.15;3.38;;;7.00;99.90;;;;;;5000945;28;20048;-93
2021/11/08 04:05:36;;;;;;;16.15;2.53;;;7.10;99.90;;;;;;5016578;28;20052;-91
2021/11/08 04:08:09;;;;;;;18.35;2.38;;;7.10;99.90;;;;;;5000637;28;20136;-95
2021/11/08 04:10:41;;;;;;;18.85;2.58;;;7.10;99.90;;;;;;5000165;28;20049;-93
2021/11/08 04:13:07;;;;;;;18.58;3.50;;;7.20;99.90;;;;;;5000558;28;20051;-95
2021/11/08 04:15:37;;;;;;;27.35;2.85;;;7.20;99.90;;;;;;4999873;28;20380;-95
2021/11/08 04:18:05;;;;;;;18.40;3.35;;;7.20;99.90;;;;;;5000286;28;20064;-95
2021/11/08 04:20:32;;;;;;;22.60;2.70;;;7.20;99.90;;;;;;5000397;28;20179;-95
2021/11/08 04:22:58;;;;;;;17.98;2.63;;;7.20;99.90;;;;;;4983694;28;20041;-95
2021/11/08 04:25:24;;;;;;;18.95;2.85;;;7.20;99.90;;;;;;5033001;28;20476;-95
2021/11/08 04:27:52;;;;;;;14.15;1.95;;;7.20;99.90;;;;;;4983718;28;20041;-93
2021/11/08 04:30:19;;;;;;;17.15;2.10;;;7.20;99.90;;;;;;5016484;28;20111;-94
2021/11/08 04:36:23;;;;;;;28.55;2.72;;;7.10;99.90;;;;;;5018157;28;20046;-92
2021/11/08 04:38:31;;;;;;;18.05;2.67;;;7.00;99.90;;;;;;5008820;28;20045;-95
2021/11/08 05:30:50;;;;;;;15.48;2.20;;;7.20;99.90;;;;;;4960322;28;20395;-94
2021/11/08 05:33:16;;;;;;;17.77;3.05;;;7.30;99.90;;;;;;5003240;28;20046;-94
2021/11/08 05:35:42;;;;;;;20.02;2.63;;;7.30;99.90;;;;;;4983251;28;20040;-93
2021/11/08 05:38:11;;;;;;;18.65;2.10;;;7.40;99.90;;;;;;4999052;28;20037;-92
2021/11/08 05:40:37;;;;;;;14.50;1.73;;;7.40;99.90;;;;;;4998834;28;20080;-92
2021/11/08 05:43:06;;;;;;;16.25;2.15;;;7.40;99.90;;;;;;4998810;28;20045;-92
2021/11/08 05:45:34;;;;;;;15.43;2.22;;;7.40;99.90;;;;;;4983681;28;20530;-94
2021/11/08 05:48:02;;;;;;;16.25;1.92;;;7.30;99.90;;;;;;4982959;28;20084;-94
2021/11/08 05:50:29;;;;;;;17.83;2.53;;;7.30;99.90;;;;;;5015253;28;20041;-91
2021/11/08 05:52:56;;;;;;;18.23;1.83;;;7.30;99.90;;;;;;4982266;28;20049;-92
2021/11/08 05:55:35;;;;;;;11.77;1.98;;;7.40;99.90;;;;;;4998306;28;20077;-94
2021/11/08 05:58:12;;;;;;;16.88;3.28;;;7.30;99.90;;;;;;4983649;28;20041;-93
2021/11/08 06:49:51;;;;;;;18.73;1.85;;;7.00;99.90;;;;;;5017849;28;20098;-91
2021/11/08 06:52:19;;;;;;;21.40;3.85;;;7.00;99.90;;;;;;5017796;28;20038;-93
2021/11/08 06:54:48;;;;;;;25.58;2.35;;;7.00;99.90;;;;;;5017529;28;20041;-93
2021/11/08 06:57:19;;;;;;;20.88;1.95;;;7.00;99.90;;;;;;5017598;28;20555;-93
2021/11/08 06:59:48;;;;;;;18.58;2.45;;;7.00;99.90;;;;;;4985798;28;20145;-93
2021/11/08 07:02:16;;;;;;;18.77;1.92;;;6.90;99.90;;;;;;5017818;28;20052;-92
2021/11/08 07:04:42;;;;;;;12.73;2.08;;;7.00;99.90;;;;;;5017882;28;20139;-95
2021/11/08 07:07:09;;;;;;;22.95;3.17;;;7.10;99.90;;;;;;5017528;28;20169;-93
2021/11/08 07:09:39;;;;;;;28.40;2.88;;;7.20;99.90;;;;;;5017976;28;20045;-94
2021/11/08 07:12:07;;;;;;;28.55;2.63;;;7.20;99.90;;;;;;4984834;28;20056;-93
2021/11/08 07:14:33;;;;;;;20.63;2.67;;;7.20;99.90;;;;;;5017484;28;20091;-94
2021/11/08 07:16:59;;;;;;;25.90;3.10;;;7.20;99.90;;;;;;5000846;28;20037;-92
2021/11/08 07:19:24;;;;;;;20.98;2.88;;;7.20;99.90;;;;;;4984746;28;20048;-93
2021/11/08 07:21:50;;;;;;;22.10;2.05;;;7.20;99.90;;;;;;5000721;28;20092;-93
2021/11/08 07:24:16;;;;;;;31.52;2.95;;;7.30;99.90;;;;;;5033822;28;20068;-92
2021/11/08 07:26:44;;;;;;;20.55;2.83;;;7.40;99.90;;;;;;5000689;28;20140;-92
2021/11/08 07:29:12;;;;;;;23.95;2.85;;;7.50;99.90;;;;;;4984243;28;20710;-93
2021/11/08 07:31:38;;;;;;;20.35;2.67;;;7.70;99.90;;;;;;5005903;28;20057;-92
2021/11/08 07:34:04;;;;;;;19.65;2.33;;;7.70;99.90;;;;;;4980672;28;20038;-92
2021/11/08 07:36:30;;;;;;;24.35;2.45;;;7.70;99.90;;;;;;4981508;28;20088;-91
2021/11/08 07:38:55;;;;;;;24.33;2.60;;;7.80;99.90;;;;;;4980917;28;20046;-93
2021/11/08 07:41:21;;;;;;;28.45;2.55;;;7.80;99.90;;;;;;4981296;28;20049;-94
2021/11/08 07:43:48;;;;;;;18.92;2.28;;;7.80;99.90;;;;;;4997623;28;20038;-93
2021/11/08 07:46:15;;;;;;;28.70;3.20;;;7.80;99.90;;;;;;4965223;28;20049;-94
2021/11/08 07:48:42;;;;;;;27.17;3.05;;;7.80;99.90;;;;;;4997225;28;20038;-95
2021/11/08 07:51:12;;;;;;;22.55;2.70;;;7.80;99.90;;;;;;4997339;28;20057;-95
2021/11/08 07:53:38;;;;;;;;;;;7.80;99.90;;;;;;4981761;28;20437;-95
2021/11/08 07:56:05;;;;;;;23.10;2.47;;;7.80;99.90;;;;;;4981441;28;19918;-93
2021/11/08 07:58:30;;;;;;;26.65;2.90;;;7.90;99.90;;;;;;4965576;28;20048;-94
2021/11/08 08:00:56;;;;;;;21.85;2.75;;;7.90;99.90;;;;;;4997639;28;20042;-93
2021/11/08 08:03:24;;;;;;;25.45;2.88;;;7.90;99.90;;;;;;4981373;28;20045;-94
2021/11/08 08:05:52;;;;;;;21.67;2.53;;;8.00;99.90;;;;;;4997386;28;20038;-94
2021/11/08 08:08:17;;;;;;;20.40;2.50;;;8.10;99.90;;;;;;4980659;28;20470;-96
2021/11/08 08:10:43;;;;;;;22.58;3.13;;;8.10;99.90;;;;;;4981574;28;20120;-95
2021/11/08 08:13:09;;;;;;;20.48;2.50;;;8.10;99.90;;;;;;4964840;28;20049;-95
2021/11/08 08:15:35;;;;;;;18.92;2.65;;;8.10;99.90;;;;;;4980540;28;20033;-92
2021/11/08 08:18:01;;;;;;;30.73;2.70;;;8.10;99.90;;;;;;4996937;28;20038;-94
2021/11/08 08:20:30;;;;;;;23.52;3.10;;;8.10;99.90;;;;;;4980666;28;20096;-92
2021/11/08 08:22:56;;;;;;;22.38;2.90;;;8.10;99.90;;;;;;4997044;28;20045;-93
2021/11/08 08:25:22;;;;;;;23.77;2.65;;;8.10;99.90;;;;;;4996766;28;20053;-93
2021/11/08 08:27:49;;;;;;;22.48;2.85;;;8.10;99.90;;;;;;4981176;28;20381;-93
2021/11/08 08:30:18;;;;;;;31.35;2.67;;;8.20;99.90;;;;;;4980925;28;20045;-92
2021/11/08 08:32:43;;;;;;;33.53;3.53;;;8.20;99.90;;;;;;4978567;28;20049;-91
2021/11/08 08:35:10;;;;;;;23.15;3.58;;;8.20;99.90;;;;;;4997664;28;20030;-90
2021/11/08 08:37:36;;;;;;;21.45;3.20;;;8.30;99.90;;;;;;4997943;28;20042;-90
2021/11/08 08:40:04;;;;;;;34.88;3.55;;;8.30;99.90;;;;;;4996850;28;20042;-94
2021/11/08 08:42:30;;;;;;;22.05;3.72;;;8.40;99.90;;;;;;4996888;28;20080;-90
2021/11/08 08:44:55;;;;;;;32.05;4.07;;;8.40;99.90;;;;;;4980385;28;20073;-92
2021/11/08 08:47:22;;;;;;;22.73;2.80;;;8.40;99.90;;;;;;4980185;28;20574;-92
2021/11/08 08:49:49;;;;;;;22.35;3.15;;;8.50;99.90;;;;;;4963914;28;20046;-92
2021/11/08 08:52:15;;;;;;;36.92;3.17;;;8.50;99.90;;;;;;4963548;28;20053;-92
2021/11/08 08:54:41;;;;;;;28.80;2.72;;;8.60;99.90;;;;;;4980284;28;20124;-94
2021/11/08 08:57:08;;;;;;;23.80;2.47;;;8.60;99.90;;;;;;4979880;28;20042;-94
2021/11/08 08:59:36;;;;;;;21.17;2.97;;;8.60;99.90;;;;;;4980349;28;20053;-93
2021/11/08 09:02:03;;;;;;;20.85;3.28;;;8.70;99.90;;;;;;4979919;28;20054;-93
2021/11/08 09:04:30;;;;;;;28.92;3.08;;;8.70;99.90;;;;;;4980451;28;20037;-93
2021/11/08 09:06:56;;;;;;;23.35;3.05;;;8.80;99.90;;;;;;4964227;28;20042;-94
2021/11/08 09:09:22;;;;;;;22.50;2.97;;;8.80;99.90;;;;;;4980002;28;20100;-92
2021/11/08 09:11:48;;;;;;;18.70;2.95;;;8.90;99.90;;;;;;4979048;28;20045;-91
2021/11/08 09:14:14;;;;;;;21.80;2.90;;;8.90;99.90;;;;;;4979067;28;20120;-91
2021/11/08 09:16:40;;;;;;;21.70;3.28;;;8.90;99.90;;;;;;4962875;28;20052;-92
2021/11/08 09:19:06;;;;;;;24.77;2.33;;;8.90;99.90;;;;;;4995762;28;20106;-92
2021/11/08 09:21:33;;;;;;;22.42;3.28;;;8.90;99.90;;;;;;4979523;28;20145;-92
2021/11/08 09:24:00;;;;;;;20.58;2.50;;;9.00;99.90;;;;;;4996658;28;20048;-92
2021/11/08 09:26:29;;;;;;;24.15;3.10;;;9.00;99.90;;;;;;4980281;28;20192;-92
2021/11/08 09:28:56;;;;;;;24.00;2.78;;;9.00;99.90;;;;;;4996438;28;20405;-92
2021/11/08 09:31:22;;;;;;;20.90;2.38;;;9.00;99.90;;;;;;4964110;28;20701;-92
2021/11/08 09:33:49;;;;;;;28.08;3.40;;;9.00;99.90;;;;;;4963938;28;20745;-91
2021/11/08 09:36:15;;;;;;;21.75;3.08;;;9.00;99.90;;;;;;4977285;28;20049;-92
2021/11/08 09:38:50;;;;;;;25.85;3.83;;;9.00;99.90;;;;;;4961872;28;20474;-90
2021/11/08 09:41:18;;;;;;;29.70;3.20;;;9.10;99.90;;;;;;4978947;28;20077;-87
2021/11/08 09:43:44;;;;;;;24.38;3.03;;;9.10;99.90;;;;;;4979564;28;20568;-90
2021/11/08 09:46:12;;;;;;;16.25;2.30;;;9.10;99.90;;;;;;4961890;28;20077;-89
2021/11/08 09:48:39;;;;;;;20.70;3.53;;;9.00;99.90;;;;;;4978093;28;20041;-88
2021/11/08 09:51:08;;;;;;;10.88;1.40;;;9.10;99.90;;;;;;4978428;28;20050;-88
2021/11/08 09:53:34;;;;;;;11.60;1.60;;;9.10;99.90;;;;;;4996187;28;20050;-87
2021/11/08 09:56:13;;;;;;;13.02;2.30;;;9.10;99.90;;;;;;4964789;28;20038;-87
2021/11/08 10:02:23;;;;;;;14.52;1.92;;;9.20;99.90;;;;;;5013227;28;20029;-88
2021/11/08 10:08:36;;;;;;;13.30;3.70;;;9.20;99.90;;;;;;5013752;28;20037;-88
2021/11/08 10:14:42;;;;;;;20.92;2.78;;;9.30;99.90;;;;;;5012987;28;20049;-88
2021/11/08 10:17:08;;;;;;;24.08;2.92;;;9.40;99.90;;;;;;4994376;28;20042;-88
2021/11/08 10:19:35;;;;;;;23.00;2.85;;;9.50;99.90;;;;;;4996505;28;20049;-88
2021/11/08 10:22:03;;;;;;;21.30;3.85;;;9.50;99.90;;;;;;4996584;28;20359;-88
2021/11/08 10:28:20;;;;;;;14.73;1.98;;;9.60;99.90;;;;;;5013408;28;20041;-88
2021/11/08 10:30:48;;;;;;;25.58;2.28;;;9.70;99.90;;;;;;4995284;28;20050;-90
2021/11/08 10:33:21;;;;;;;17.00;2.25;;;9.70;99.90;;;;;;4998252;28;20049;-93
2021/11/08 10:35:53;;;;;;;16.25;2.30;;;9.80;99.90;;;;;;5014080;28;20073;-94
2021/11/08 10:38:24;;;;;;;11.52;1.75;;;9.80;99.90;;;;;;5012786;28;20033;-93
2021/11/08 10:41:07;;;;;;;14.70;2.50;;;9.90;99.90;;;;;;5013343;28;20047;-91
2021/11/08 10:43:35;;;;;;;21.27;3.10;;;9.90;99.90;;;;;;5013146;28;20098;-89
2021/11/08 10:46:07;;;;;;;12.98;3.03;;;10.10;99.90;;;;;;4997455;28;20450;-90
2021/11/08 10:48:38;;;;;;;15.55;1.85;;;10.00;99.90;;;;;;4996109;28;20563;-90
2021/11/08 10:51:06;;;;;;;16.48;3.03;;;10.00;99.90;;;;;;5013458;28;20050;-90
2021/11/08 10:53:43;;;;;;;14.63;1.83;;;10.00;99.90;;;;;;5012958;28;20045;-90
2021/11/08 10:56:11;;;;;;;24.13;3.20;;;9.90;99.90;;;;;;5012872;28;20049;-90
2021/11/08 10:58:46;;;;;;;14.93;1.88;;;9.90;99.90;;;;;;4996653;28;20049;-90
2021/11/08 11:01:22;;;;;;;16.63;2.08;;;9.90;99.90;;;;;;5012534;28;20056;-91
2021/11/08 11:03:55;;;;;;;16.40;1.92;;;9.90;99.90;;;;;;5012467;28;20049;-88
2021/11/08 11:06:40;;;;;;;21.65;3.30;;;9.90;99.90;;;;;;4981951;28;20049;-89
2021/11/08 11:09:21;;;;;;;25.65;3.42;;;9.90;99.90;;;;;;5014664;28;20094;-89
2021/11/08 11:11:49;;;;;;;20.63;3.42;;;10.00;99.90;;;;;;5014834;28;20041;-91
2021/11/08 11:14:15;;;;;;;17.65;2.42;;;10.00;99.90;;;;;;5015875;28;20103;-89
2021/11/08 11:16:50;;;;;;;21.23;2.25;;;10.00;99.90;;;;;;5017967;28;20034;-88
2021/11/08 11:19:18;;;;;;;19.98;2.60;;;10.10;99.90;;;;;;5017568;28;20118;-88
2021/11/08 11:22:03;;;;;;;21.33;2.58;;;10.20;99.90;;;;;;5001701;28;20048;-88
2021/11/08 11:24:32;;;;;;;17.20;2.42;;;10.20;99.90;;;;;;5001648;28;20042;-90
2021/11/08 11:26:58;;;;;;;17.85;2.08;;;10.20;99.90;;;;;;5017468;28;20041;-89
2021/11/08 11:29:28;;;;;;;15.68;2.40;;;10.20;99.90;;;;;;5033535;28;20046;-89
2021/11/08 11:31:54;;;;;;;20.95;3.72;;;10.20;99.90;;;;;;4999844;28;20050;-89
2021/11/08 11:34:19;;;;;;;23.23;3.20;;;10.20;99.90;;;;;;5017320;28;20041;-91
2021/11/08 11:36:45;;;;;;;19.95;2.25;;;10.20;99.90;;;;;;5017802;28;20068;-90
2021/11/08 11:39:16;;;;;;;20.88;2.25;;;10.20;99.90;;;;;;5033719;28;20129;-93
2021/11/08 11:41:44;;;;;;;15.90;2.78;;;10.20;99.90;;;;;;5001088;28;20042;-88
2021/11/08 11:44:22;;;;;;;21.65;2.53;;;10.30;99.90;;;;;;5000472;28;20046;-92
2021/11/08 11:46:51;;;;;;;23.63;3.35;;;10.50;99.90;;;;;;5002476;28;20412;-91
2021/11/08 11:49:18;;;;;;;22.55;2.83;;;10.60;99.90;;;;;;5018035;28;20500;-90
2021/11/08 11:51:48;;;;;;;25.92;3.42;;;10.70;99.90;;;;;;5001036;28;20528;-90
2021/11/08 11:54:17;;;;;;;13.85;2.10;;;10.90;99.90;;;;;;5014807;28;20520;-92
2021/11/08 11:56:45;;;;;;;17.45;2.30;;;10.90;99.90;;;;;;5016357;28;20102;-91
2021/11/08 11:59:13;;;;;;;23.25;2.97;;;11.00;99.90;;;;;;5016655;28;20087;-90
2021/11/08 12:01:39;;;;;;;20.33;1.95;;;11.00;99.90;;;;;;5000174;28;20167;-89
2021/11/08 12:04:07;;;;;;;21.05;2.30;;;11.10;99.90;;;;;;5016217;28;20045;-90
2021/11/08 12:06:38;;;;;;;25.67;3.53;;;11.10;99.90;;;;;;5016238;28;20103;-88
2021/11/08 12:09:08;;;;;;;23.80;2.97;;;11.10;99.90;;;;;;5016755;28;20056;-89
2021/11/08 12:11:46;;;;;;;33.33;3.85;;;11.00;99.90;;;;;;5016706;28;20732;-89
2021/11/08 12:14:30;;;;;;;16.05;2.13;;;11.00;99.90;;;;;;5015950;28;20115;-89
2021/11/08 12:17:06;;;;;;;23.00;2.78;;;11.00;99.90;;;;;;5015430;28;20044;-89
2021/11/08 12:19:38;;;;;;;31.90;3.63;;;11.00;99.90;;;;;;5014999;28;20499;-89
2021/11/08 12:22:11;;;;;;;22.20;2.63;;;11.00;99.90;;;;;;4999380;28;20055;-92
2021/11/08 12:24:38;;;;;;;18.65;2.72;;;11.00;99.90;;;;;;5014908;28;20136;-93
2021/11/08 12:27:12;;;;;;;23.35;2.65;;;11.00;99.90;;;;;;5015293;28;20374;-93
2021/11/08 12:29:50;;;;;;;25.75;3.00;;;11.10;99.90;;;;;;5015004;28;20045;-92
2021/11/08 12:32:16;;;;;;;27.05;3.42;;;11.20;99.90;;;;;;5001226;28;20046;-91
2021/11/08 12:34:50;;;;;;;26.88;3.63;;;11.20;99.90;;;;;;4995498;28;20433;-93
2021/11/08 12:37:17;;;;;;;32.22;2.92;;;11.20;99.90;;;;;;4995356;28;20096;-91
2021/11/08 12:39:58;;;;;;;27.45;3.70;;;11.20;99.90;;;;;;4979504;28;20053;-93
2021/11/08 12:42:37;;;;;;;30.95;3.53;;;11.30;99.90;;;;;;4979003;28;20085;-91
2021/11/08 12:45:13;;;;;;;23.52;3.90;;;11.30;99.90;;;;;;4995441;28;20052;-91
2021/11/08 12:47:39;;;;;;;28.52;4.28;;;11.30;99.90;;;;;;4979056;28;20042;-92
2021/11/08 12:50:07;;;;;;;22.92;3.50;;;11.40;99.90;;;;;;4995348;28;20095;-93
2021/11/08 12:52:39;;;;;;;22.35;3.65;;;11.40;99.90;;;;;;4995266;28;20046;-93
2021/11/08 12:55:11;;;;;;;38.28;5.47;;;11.40;99.90;;;;;;4995246;28;20397;-92
2021/11/08 12:57:49;;;;;;;28.85;3.95;;;11.40;99.90;;;;;;4995138;28;20101;-93
2021/11/08 13:00:25;;;;;;;28.77;3.33;;;11.40;99.90;;;;;;4995257;28;20042;-92
2021/11/08 13:02:55;;;;;;;23.15;3.13;;;11.40;99.90;;;;;;4995470;28;20050;-91
2021/11/08 13:05:33;;;;;;;18.60;3.45;;;11.40;99.90;;;;;;4995194;28;20046;-92
2021/11/08 13:07:59;;;;;;;35.47;4.05;;;11.40;99.90;;;;;;4979304;28;20057;-91
2021/11/08 13:10:37;;;;;;;26.50;3.58;;;11.40;99.90;;;;;;4978856;28;20046;-93
2021/11/08 13:13:08;;;;;;;16.65;2.58;;;11.30;99.90;;;;;;4995359;28;20088;-92
2021/11/08 13:15:39;;;;;;;32.50;4.22;;;11.30;99.90;;;;;;4978212;28;20034;-92
2021/11/08 13:18:10;;;;;;;26.13;3.50;;;11.30;99.90;;;;;;4995257;28;20545;-92
2021/11/08 13:20:46;;;;;;;18.13;3.45;;;11.30;99.90;;;;;;4994420;28;20042;-93
2021/11/08 13:23:19;;;;;;;20.60;3.15;;;11.30;99.90;;;;;;4995061;28;20046;-92
2021/11/08 13:25:52;;;;;;;16.27;2.35;;;11.30;99.90;;;;;;4978745;28;20042;-92
2021/11/08 13:28:21;;;;;;;24.73;3.88;;;11.20;99.90;;;;;;4995043;28;20410;-92
2021/11/08 13:30:55;;;;;;;18.93;3.73;;;11.20;99.90;;;;;;4996436;28;20038;-94
2021/11/08 13:33:24;;;;;;;21.15;3.50;;;11.10;99.90;;;;;;5014281;28;20045;-90
2021/11/08 13:35:50;;;;;;;21.15;4.50;;;11.20;99.90;;;;;;5014339;28;20469;-92
2021/11/08 13:38:23;;;;;;;12.02;1.92;;;11.20;99.90;;;;;;4997697;28;20107;-92
2021/11/08 13:40:55;;;;;;;35.50;5.68;;;11.20;99.90;;;;;;5014309;28;20076;-92
2021/11/08 13:43:24;;;;;;;25.27;4.22;;;11.20;99.90;;;;;;5014022;28;20052;-92
2021/11/08 13:45:51;;;;;;;29.88;6.22;;;11.20;99.90;;;;;;5014377;28;20060;-93
2021/11/08 13:48:31;;;;;;;25.75;5.15;;;11.20;99.90;;;;;;5014696;28;20051;-93
2021/11/08 13:51:05;;;;;;;20.02;3.55;;;11.20;99.90;;;;;;5014442;28;20099;-92
2021/11/08 13:53:37;;;;;;;31.40;3.53;;;11.20;99.90;;;;;;5012459;28;20045;-92
2021/11/08 13:56:11;;;;;;;19.42;3.00;;;11.30;99.90;;;;;;5013907;28;20060;-93
2021/11/08 13:58:49;;;;;;;22.70;3.88;;;11.20;99.90;;;;;;4997370;28;20056;-93
2021/11/08 14:01:15;;;;;;;27.02;3.83;;;11.20;99.90;;;;;;5013992;28;20128;-91
2021/11/08 14:03:43;;;;;;;28.52;3.25;;;11.20;99.90;;;;;;5013637;28;20584;-93
2021/11/08 14:06:13;;;;;;;26.92;3.20;;;11.20;99.90;;;;;;5013769;28;20088;-92
2021/11/08 14:08:48;;;;;;;23.53;2.50;;;11.20;99.90;;;;;;5013641;28;20045;-92
2021/11/08 14:11:23;;;;;;;20.25;3.42;;;11.10;99.90;;;;;;5013708;28;20072;-93
2021/11/08 14:13:53;;;;;;;22.27;4.07;;;11.10;99.90;;;;;;5013826;28;20045;-92
2021/11/08 14:16:19;;;;;;;28.98;4.65;;;11.00;99.90;;;;;;5013618;28;20045;-91
2021/11/08 14:18:54;;;;;;;16.48;3.95;;;11.00;99.90;;;;;;5013203;28;20267;-92
2021/11/08 14:21:22;;;;;;;30.98;5.88;;;11.00;99.90;;;;;;5013868;28;20470;-92
2021/11/08 14:23:59;;;;;;;30.52;5.47;;;11.00;99.90;;;;;;5013013;28;20038;-93
2021/11/08 14:26:25;;;;;;;21.17;4.20;;;11.00;99.90;;;;;;5013602;28;20519;-91
2021/11/08 14:28:51;;;;;;;13.38;2.72;;;11.00;99.90;;;;;;5013774;28;20059;-91
2021/11/08 14:31:20;;;;;;;21.80;3.35;;;11.00;99.90;;;;;;5007638;28;20489;-90
2021/11/08 14:33:47;;;;;;;26.63;5.75;;;11.00;99.90;;;;;;4993220;28;20595;-92
2021/11/08 14:36:18;;;;;;;25.55;3.33;;;11.00;99.90;;;;;;4993967;28;20085;-91
2021/11/08 14:38:47;;;;;;;26.48;3.33;;;11.00;99.90;;;;;;4993653;28;20085;-92
2021/11/08 14:41:12;;;;;;;35.35;4.53;;;11.00;99.90;;;;;;4993734;28;20053;-90
2021/11/08 14:43:38;;;;;;;25.23;3.75;;;11.00;99.90;;;;;;4976791;28;20474;-91
2021/11/08 14:46:07;;;;;;;37.42;5.38;;;10.90;99.90;;;;;;4977152;28;20040;-92
2021/11/08 14:48:37;;;;;;;25.30;3.97;;;10.90;99.90;;;;;;4993206;28;20038;-92
2021/11/08 14:51:07;;;;;;;;;;;10.90;99.90;;;;;;4997997;28;20092;-91
2021/11/08 14:53:37;;;;;;;30.83;3.58;;;10.90;99.90;;;;;;4996614;28;19918;-92
2021/11/08 14:56:18;;;;;;;32.35;4.47;;;10.90;99.90;;;;;;4996595;28;20045;-92
2021/11/08 14:59:07;;;;;;;20.30;4.18;;;10.80;99.90;;;;;;4978303;28;20050;-93
2021/11/08 15:01:35;;;;;;;24.98;4.25;;;10.80;99.90;;;;;;4979880;28;20042;-92